Time;durP1;ratioP1;P1;durP2;ratioP2;P2;SDS_P1;SDS_P2;PMS_P1;PMS_P2;Temp;Humidity;BMP_temperature;BMP_pressure;BME280_temperature;BME280_humidity;BME280_pressure;Samples;Min_cycle;Max_cycle;Signal;HPM_P1;HPM_P2
2023/08/30 00:00:11;;;;;;;13.23;10.45;;;;;;;14.25;100.00;100787.47;5021711;28;20045;-73
2023/08/30 00:02:37;;;;;;;15.55;10.20;;;;;;;14.27;100.00;100788.22;5030266;28;20069;-73
2023/08/30 00:05:03;;;;;;;16.13;11.60;;;;;;;14.23;100.00;100792.13;5028381;28;20056;-72
2023/08/30 00:07:29;;;;;;;16.50;10.02;;;;;;;14.14;100.00;100785.66;5027261;28;20171;-73
2023/08/30 00:09:56;;;;;;;16.30;10.73;;;;;;;14.17;100.00;100777.38;5029465;28;20041;-73
2023/08/30 00:12:22;;;;;;;10.77;9.07;;;;;;;14.15;100.00;100771.25;5027733;28;20045;-73
2023/08/30 00:14:47;;;;;;;17.17;11.35;;;;;;;14.00;100.00;100777.84;5025846;28;20029;-72
2023/08/30 00:17:13;;;;;;;15.20;11.13;;;;;;;13.93;100.00;100772.13;5029548;28;20052;-72
2023/08/30 00:19:39;;;;;;;16.20;10.68;;;;;;;13.95;100.00;100772.00;5061105;28;20030;-73
2023/08/30 00:22:07;;;;;;;16.15;10.90;;;;;;;14.00;100.00;100772.47;5025736;28;20845;-73
2023/08/30 00:24:33;;;;;;;17.90;11.68;;;;;;;14.00;100.00;100765.28;5027178;28;20104;-73
2023/08/30 00:27:00;;;;;;;14.30;10.77;;;;;;;14.02;100.00;100765.19;5012906;28;20144;-73
2023/08/30 00:29:25;;;;;;;15.93;11.10;;;;;;;13.97;100.00;100764.69;5029207;28;20037;-73
2023/08/30 00:31:51;;;;;;;15.88;11.40;;;;;;;13.95;100.00;100767.47;5027251;28;20041;-73
2023/08/30 00:34:16;;;;;;;14.98;11.05;;;;;;;13.90;100.00;100758.09;5025394;28;20041;-72
2023/08/30 00:36:42;;;;;;;22.10;13.00;;;;;;;13.78;100.00;100759.06;5027139;28;20041;-73
2023/08/30 00:39:08;;;;;;;17.60;11.32;;;;;;;13.58;100.00;100766.81;5028673;28;20819;-72
2023/08/30 00:41:34;;;;;;;18.60;11.50;;;;;;;13.57;100.00;100769.63;5020502;28;20302;-73
2023/08/30 00:44:00;;;;;;;17.48;11.73;;;;;;;13.64;100.00;100768.16;5033536;28;20042;-72
2023/08/30 00:46:26;;;;;;;19.92;12.15;;;;;;;13.68;100.00;100772.31;5030223;28;20051;-73
2023/08/30 00:48:51;;;;;;;17.42;13.00;;;;;;;13.63;100.00;100767.31;5022291;28;20033;-72
2023/08/30 00:51:17;;;;;;;17.08;12.00;;;;;;;13.65;100.00;100769.88;5019710;28;20116;-72
2023/08/30 00:53:44;;;;;;;19.23;11.73;;;;;;;13.64;100.00;100774.38;5033988;28;20882;-73
2023/08/30 00:56:10;;;;;;;17.48;11.80;;;;;;;13.64;100.00;100771.69;5034998;28;20050;-73
2023/08/30 00:58:36;;;;;;;23.60;13.23;;;;;;;13.69;100.00;100769.53;5019412;28;20443;-73
2023/08/30 01:01:01;;;;;;;18.83;12.13;;;;;;;13.67;100.00;100766.13;5028500;28;20043;-72
2023/08/30 01:03:27;;;;;;;16.33;12.35;;;;;;;13.59;100.00;100765.00;5061082;28;20045;-73
2023/08/30 01:05:54;;;;;;;21.73;12.75;;;;;;;13.66;100.00;100769.78;5028922;28;20055;-73
2023/08/30 01:08:20;;;;;;;25.77;13.90;;;;;;;13.66;100.00;100768.94;5040376;28;20045;-73
2023/08/30 01:11:29;;;;;;;22.38;12.73;;;;;;;13.73;100.00;100759.44;5027641;28;20041;-72
2023/08/30 01:14:04;;;;;;;23.58;13.57;;;;;;;13.78;100.00;100757.25;5014016;28;20041;-72
2023/08/30 01:16:31;;;;;;;18.88;12.57;;;;;;;13.85;100.00;100757.59;5060981;28;20038;-72
2023/08/30 01:19:03;;;;;;;16.73;13.25;;;;;;;13.77;100.00;100749.31;5027609;28;20041;-72
2023/08/30 01:22:08;;;;;;;22.33;12.75;;;;;;;13.80;100.00;100749.91;5028245;28;20044;-72
2023/08/30 01:25:11;;;;;;;21.55;13.65;;;;;;;13.76;100.00;100759.19;5023757;28;20034;-73
2023/08/30 01:27:37;;;;;;;;;;;;;;;13.77;100.00;100747.50;5043310;28;20093;-72
2023/08/30 01:30:06;;;;;;;19.35;12.57;;;;;;;13.76;100.00;100747.63;5031448;28;20020;-72
2023/08/30 01:32:34;;;;;;;22.83;13.35;;;;;;;13.71;100.00;100743.47;5029904;28;20038;-72
2023/08/30 01:35:01;;;;;;;21.83;13.90;;;;;;;13.69;100.00;100741.88;5046890;28;20033;-71
2023/08/30 01:37:28;;;;;;;20.00;13.48;;;;;;;13.67;100.00;100744.69;5029734;28;20145;-71
2023/08/30 01:39:56;;;;;;;24.20;14.13;;;;;;;13.65;100.00;100748.44;5059920;28;20044;-72
2023/08/30 01:42:24;;;;;;;19.58;13.00;;;;;;;13.58;100.00;100752.56;5028805;28;20036;-72
2023/08/30 01:44:54;;;;;;;22.48;14.27;;;;;;;13.59;100.00;100748.91;5038958;28;20057;-72
2023/08/30 01:47:22;;;;;;;15.75;12.48;;;;;;;13.52;100.00;100743.19;5028222;28;20889;-72
2023/08/30 01:49:49;;;;;;;23.58;12.98;;;;;;;13.45;100.00;100736.59;5018935;28;20037;-72
2023/08/30 01:52:16;;;;;;;20.67;13.98;;;;;;;13.46;100.00;100743.66;5024641;28;20049;-72
2023/08/30 01:54:45;;;;;;;22.50;12.32;;;;;;;13.39;100.00;100739.75;5023799;28;20069;-72
2023/08/30 01:57:10;;;;;;;17.70;12.57;;;;;;;13.40;100.00;100744.13;5045259;28;20042;-73
2023/08/30 01:59:36;;;;;;;22.45;12.02;;;;;;;13.24;100.00;100748.94;5028241;28;20191;-73
2023/08/30 02:02:03;;;;;;;17.98;11.23;;;;;;;13.20;100.00;100738.47;5028859;28;20101;-72
2023/08/30 02:04:31;;;;;;;16.13;12.25;;;;;;;13.16;100.00;100738.81;5019590;28;20030;-72
2023/08/30 02:07:08;;;;;;;17.35;12.57;;;;;;;13.06;100.00;100735.13;5040396;28;20033;-72
2023/08/30 02:09:37;;;;;;;17.20;13.13;;;;;;;13.08;100.00;100736.69;5039287;28;20048;-72
2023/08/30 02:12:07;;;;;;;18.48;13.07;;;;;;;13.06;100.00;100730.63;5020969;28;20042;-72
2023/08/30 02:14:33;;;;;;;23.13;14.75;;;;;;;12.90;100.00;100743.41;5015406;28;20769;-73
2023/08/30 02:16:59;;;;;;;22.13;15.45;;;;;;;12.95;100.00;100739.47;5043356;28;20966;-72
2023/08/30 02:19:25;;;;;;;24.50;14.90;;;;;;;12.96;100.00;100735.81;5059519;28;20037;-72
2023/08/30 02:21:51;;;;;;;24.83;14.68;;;;;;;12.90;100.00;100735.38;5018127;28;20338;-72
2023/08/30 02:24:17;;;;;;;22.17;15.63;;;;;;;12.92;100.00;100733.47;5024271;28;20038;-72
2023/08/30 02:26:43;;;;;;;21.27;15.30;;;;;;;12.98;100.00;100735.69;5028196;28;20148;-72
2023/08/30 02:29:09;;;;;;;23.42;15.35;;;;;;;12.94;100.00;100729.69;5061134;28;20144;-72
2023/08/30 02:31:36;;;;;;;23.80;14.65;;;;;;;12.96;100.00;100732.28;5027808;28;20046;-72
2023/08/30 02:34:02;;;;;;;22.13;14.93;;;;;;;13.01;100.00;100727.44;5024972;28;20033;-72
2023/08/30 02:36:29;;;;;;;22.40;14.48;;;;;;;13.05;100.00;100723.56;5027701;28;20049;-72
2023/08/30 02:38:55;;;;;;;21.58;14.27;;;;;;;13.09;100.00;100722.34;5030408;28;21054;-72
2023/08/30 02:41:21;;;;;;;25.83;14.75;;;;;;;13.13;100.00;100723.81;5038517;28;20038;-72
2023/08/30 02:43:47;;;;;;;21.10;15.10;;;;;;;13.16;100.00;100720.06;5061245;28;20056;-72
2023/08/30 02:46:13;;;;;;;19.92;14.18;;;;;;;13.21;100.00;100715.22;5032261;28;20048;-72
2023/08/30 02:48:38;;;;;;;23.40;16.13;;;;;;;13.25;100.00;100714.00;5030192;28;20370;-73
2023/08/30 02:51:04;;;;;;;20.38;15.15;;;;;;;13.34;100.00;100715.97;5044195;28;20125;-71
2023/08/30 02:53:29;;;;;;;27.65;15.15;;;;;;;13.41;100.00;100703.00;5030328;28;20503;-72
2023/08/30 02:55:55;;;;;;;26.55;17.02;;;;;;;13.46;100.00;100709.69;5019204;28;20046;-73
2023/08/30 02:58:22;;;;;;;24.45;16.55;;;;;;;13.41;100.00;100709.19;5031168;28;20072;-72
2023/08/30 03:00:47;;;;;;;21.33;15.60;;;;;;;13.51;100.00;100704.00;5033516;28;20041;-72
2023/08/30 03:03:14;;;;;;;22.50;15.73;;;;;;;13.50;100.00;100698.72;5028912;28;20033;-72
2023/08/30 03:05:40;;;;;;;23.40;16.95;;;;;;;13.44;100.00;100700.06;5063480;28;20950;-72
2023/08/30 03:08:06;;;;;;;27.42;17.30;;;;;;;13.36;100.00;100698.00;5030318;28;20034;-72
2023/08/30 03:10:32;;;;;;;22.17;15.57;;;;;;;13.35;100.00;100698.94;5027390;28;20103;-72
2023/08/30 03:12:58;;;;;;;24.30;16.35;;;;;;;13.17;100.00;100697.66;5024095;28;20065;-72
2023/08/30 03:15:24;;;;;;;22.15;16.42;;;;;;;13.25;100.00;100697.94;5062986;28;20041;-72
2023/08/30 03:17:49;;;;;;;22.08;15.45;;;;;;;13.25;100.00;100689.06;5028421;28;20052;-72
2023/08/30 03:20:15;;;;;;;25.73;16.42;;;;;;;13.22;100.00;100703.56;5066024;28;20041;-72
2023/08/30 03:22:41;;;;;;;24.55;17.55;;;;;;;13.21;100.00;100697.34;5033755;28;20034;-73
2023/08/30 03:25:09;;;;;;;21.98;17.38;;;;;;;13.16;100.00;100688.78;5034361;28;20159;-72
2023/08/30 03:27:35;;;;;;;28.33;17.08;;;;;;;13.17;100.00;100690.47;5031320;28;20093;-72
2023/08/30 03:30:03;;;;;;;26.13;16.25;;;;;;;13.07;100.00;100683.28;5066469;28;20041;-73
2023/08/30 03:32:32;;;;;;;28.73;17.50;;;;;;;12.98;100.00;100675.94;5033741;28;20164;-72
2023/08/30 03:34:58;;;;;;;26.92;16.88;;;;;;;13.00;100.00;100674.00;5043554;28;20040;-72
2023/08/30 03:37:24;;;;;;;26.25;17.50;;;;;;;12.88;100.00;100673.97;5039482;28;20097;-73
2023/08/30 03:39:49;;;;;;;26.92;18.30;;;;;;;12.85;100.00;100668.84;5066793;28;20046;-72
2023/08/30 03:42:15;;;;;;;30.73;16.88;;;;;;;12.81;100.00;100667.38;5034501;28;20033;-71
2023/08/30 03:44:40;;;;;;;26.90;16.98;;;;;;;12.83;100.00;100670.78;5035237;28;20060;-72
2023/08/30 03:47:07;;;;;;;23.50;16.05;;;;;;;12.87;100.00;100664.22;5022115;28;20026;-73
2023/08/30 03:49:32;;;;;;;26.15;17.92;;;;;;;12.77;100.00;100654.34;5019906;28;20234;-71
2023/08/30 03:51:58;;;;;;;25.52;18.10;;;;;;;12.81;100.00;100648.66;5033839;28;20033;-72
2023/08/30 03:54:23;;;;;;;28.00;18.38;;;;;;;12.84;100.00;100650.22;5028697;28;20042;-73
2023/08/30 03:56:49;;;;;;;25.95;17.52;;;;;;;12.88;100.00;100641.84;5062073;28;20104;-73
2023/08/30 03:59:15;;;;;;;29.23;18.23;;;;;;;12.89;100.00;100638.19;5026186;28;20041;-73
2023/08/30 04:01:40;;;;;;;28.58;17.50;;;;;;;12.92;100.00;100639.78;5031541;28;20631;-72
2023/08/30 04:04:06;;;;;;;24.90;16.90;;;;;;;12.88;100.00;100638.31;5028636;28;20348;-73
2023/08/30 04:06:31;;;;;;;28.45;18.52;;;;;;;12.93;100.00;100636.13;5028844;28;20613;-72
2023/08/30 04:08:57;;;;;;;27.58;17.73;;;;;;;12.86;100.00;100629.56;5026196;28;20556;-72
2023/08/30 04:11:23;;;;;;;26.83;18.02;;;;;;;12.87;100.00;100628.59;5032080;28;20392;-74
2023/08/30 04:13:49;;;;;;;28.08;18.77;;;;;;;12.81;100.00;100627.25;5064917;28;20148;-73
2023/08/30 04:16:14;;;;;;;26.40;17.75;;;;;;;12.72;100.00;100619.06;5063728;28;20670;-72
2023/08/30 04:18:40;;;;;;;27.05;18.23;;;;;;;12.68;100.00;100615.75;5065308;28;20060;-72
2023/08/30 04:21:08;;;;;;;26.45;17.40;;;;;;;12.60;100.00;100607.44;5059703;28;20877;-72
2023/08/30 04:23:33;;;;;;;29.60;17.63;;;;;;;12.54;100.00;100608.75;5063526;28;20072;-72
2023/08/30 04:25:59;;;;;;;32.08;17.48;;;;;;;12.54;100.00;100614.09;5061245;28;20483;-72
2023/08/30 04:28:26;;;;;;;24.75;17.60;;;;;;;12.54;100.00;100607.91;5028397;28;20091;-72
2023/08/30 04:30:55;;;;;;;30.10;17.40;;;;;;;12.51;100.00;100606.34;5064495;28;20219;-72
2023/08/30 04:33:25;;;;;;;31.40;18.33;;;;;;;12.42;100.00;100599.00;5030568;28;20034;-72
2023/08/30 04:35:54;;;;;;;27.40;17.15;;;;;;;12.44;100.00;100594.38;5031269;28;20061;-72
2023/08/30 04:38:20;;;;;;;30.35;19.95;;;;;;;12.38;100.00;100598.38;5027120;28;20092;-72
2023/08/30 04:40:47;;;;;;;32.28;19.65;;;;;;;12.41;100.00;100599.97;5027343;28;20911;-73
2023/08/30 04:43:14;;;;;;;29.23;19.25;;;;;;;12.46;100.00;100599.63;5028681;28;20037;-72
2023/08/30 04:45:40;;;;;;;27.67;18.35;;;;;;;12.46;100.00;100596.94;5030214;28;20061;-72
2023/08/30 04:48:07;;;;;;;31.77;18.40;;;;;;;12.50;100.00;100598.41;5029004;28;20160;-72
2023/08/30 04:50:33;;;;;;;29.90;18.48;;;;;;;12.42;100.00;100585.63;5028885;28;20037;-72
2023/08/30 04:52:59;;;;;;;27.38;18.17;;;;;;;12.40;100.00;100584.91;5060894;28;20901;-72
2023/08/30 04:55:25;;;;;;;30.20;19.17;;;;;;;12.38;100.00;100581.47;5059935;28;20044;-72
2023/08/30 04:57:51;;;;;;;31.77;19.13;;;;;;;12.37;100.00;100577.94;5057608;28;20104;-72
2023/08/30 05:00:18;;;;;;;26.13;17.50;;;;;;;12.35;100.00;100584.34;5023885;28;20041;-72
2023/08/30 05:02:46;;;;;;;27.20;18.52;;;;;;;12.28;100.00;100581.31;5027591;28;20087;-72
2023/08/30 05:05:13;;;;;;;25.95;19.13;;;;;;;12.31;100.00;100580.25;5028733;28;20215;-72
2023/08/30 05:07:39;;;;;;;31.45;19.77;;;;;;;12.33;100.00;100583.63;5027765;28;20085;-72
2023/08/30 05:10:06;;;;;;;26.45;17.73;;;;;;;12.34;100.00;100582.66;5028487;28;20534;-72
2023/08/30 05:12:34;;;;;;;30.17;21.00;;;;;;;12.41;100.00;100589.28;5025385;28;20056;-73
2023/08/30 05:14:59;;;;;;;27.00;19.25;;;;;;;12.40;100.00;100585.75;5020782;28;20026;-73
2023/08/30 05:17:28;;;;;;;27.38;19.17;;;;;;;12.35;100.00;100579.91;5010340;28;20212;-72
2023/08/30 05:19:54;;;;;;;31.33;20.52;;;;;;;12.50;100.00;100582.34;5027270;28;20034;-73
2023/08/30 05:22:20;;;;;;;31.70;21.70;;;;;;;12.63;100.00;100580.47;5025048;28;20042;-73
2023/08/30 05:24:47;;;;;;;32.35;20.88;;;;;;;12.76;100.00;100575.03;5024735;28;20036;-72
2023/08/30 05:27:14;;;;;;;35.70;22.60;;;;;;;12.76;100.00;100575.91;5036583;28;20038;-72
2023/08/30 05:29:40;;;;;;;35.15;22.95;;;;;;;12.89;100.00;100573.97;5025291;28;20037;-72
2023/08/30 05:32:05;;;;;;;30.70;22.02;;;;;;;13.02;100.00;100567.66;5023402;28;20037;-72
2023/08/30 05:35:03;;;;;;;29.45;20.98;;;;;;;13.15;100.00;100571.06;5019376;28;20144;-73
2023/08/30 05:37:48;;;;;;;34.60;22.08;;;;;;;13.17;100.00;100564.63;5004353;28;20113;-72
2023/08/30 05:40:36;;;;;;;35.85;23.38;;;;;;;13.35;100.00;100564.19;5006945;28;20096;-72
2023/08/30 05:43:02;;;;;;;37.00;22.83;;;;;;;13.43;100.00;100559.94;5005589;28;20097;-72
2023/08/30 05:45:27;;;;;;;29.20;22.05;;;;;;;13.61;100.00;100554.94;5007747;28;20100;-72
2023/08/30 05:47:53;;;;;;;36.53;22.77;;;;;;;13.72;100.00;100552.22;5004807;28;20046;-73
2023/08/30 05:50:18;;;;;;;32.83;21.83;;;;;;;13.87;100.00;100557.31;5004407;28;21020;-72
2023/08/30 05:52:44;;;;;;;47.53;24.45;;;;;;;13.96;100.00;100549.38;5003567;28;20064;-71
2023/08/30 05:55:10;;;;;;;37.63;24.75;;;;;;;13.94;100.00;100556.69;5002150;28;20034;-73
2023/08/30 05:57:36;;;;;;;36.15;23.70;;;;;;;14.15;100.00;100556.72;5003551;28;20060;-73
2023/08/30 06:00:04;;;;;;;32.63;24.38;;;;;;;14.41;100.00;100551.91;5021407;28;20868;-72
2023/08/30 06:02:40;;;;;;;36.67;25.70;;;;;;;14.50;100.00;100556.50;5003821;28;20049;-73
2023/08/30 06:05:05;;;;;;;37.20;26.45;;;;;;;14.62;100.00;100551.09;4991182;28;20144;-72
2023/08/30 06:07:31;;;;;;;37.20;25.95;;;;;;;14.79;100.00;100546.97;5009302;28;20042;-74
2023/08/30 06:09:57;;;;;;;40.25;28.73;;;;;;;14.79;100.00;100545.13;5011260;28;20050;-72
2023/08/30 06:12:22;;;;;;;45.80;28.70;;;;;;;14.88;100.00;100532.75;5029027;28;20054;-73
2023/08/30 06:14:52;;;;;;;44.88;27.92;;;;;;;14.96;100.00;100540.97;5027423;28;20044;-72
2023/08/30 06:17:18;;;;;;;41.50;27.80;;;;;;;15.09;100.00;100527.34;5028086;28;20131;-72
2023/08/30 06:19:45;;;;;;;45.58;29.15;;;;;;;15.17;100.00;100535.59;5024751;28;20037;-71
2023/08/30 06:22:11;;;;;;;47.78;28.83;;;;;;;15.18;100.00;100529.22;5029635;28;20029;-73
2023/08/30 06:24:36;;;;;;;41.35;27.65;;;;;;;15.36;100.00;100535.69;5030882;28;20033;-73
2023/08/30 06:27:02;;;;;;;46.50;29.35;;;;;;;15.63;100.00;100523.44;5023402;28;20038;-72
2023/08/30 06:29:27;;;;;;;43.03;27.90;;;;;;;15.66;100.00;100515.13;5022928;28;22140;-72
2023/08/30 06:31:53;;;;;;;42.63;27.90;;;;;;;15.97;100.00;100514.06;5023984;28;20566;-72
2023/08/30 06:34:18;;;;;;;36.80;25.77;;;;;;;16.34;100.00;100516.03;5014589;28;20349;-72
2023/08/30 06:36:44;;;;;;;40.10;27.40;;;;;;;16.63;100.00;100513.34;5018582;28;20080;-72
2023/08/30 06:39:10;;;;;;;35.42;24.58;;;;;;;16.73;100.00;100514.19;5021234;28;20080;-72
2023/08/30 06:41:35;;;;;;;38.05;25.42;;;;;;;16.78;100.00;100519.16;5015296;28;20545;-72
2023/08/30 06:44:01;;;;;;;40.35;25.88;;;;;;;16.66;100.00;100515.72;5027469;28;20041;-73
2023/08/30 06:46:26;;;;;;;37.20;24.10;;;;;;;16.49;100.00;100513.78;5023274;28;20041;-72
2023/08/30 06:48:52;;;;;;;45.53;25.15;;;;;;;16.20;100.00;100511.94;5023430;28;20061;-72
2023/08/30 06:51:17;;;;;;;33.72;24.15;;;;;;;16.16;100.00;100520.44;5015509;28;20061;-72
2023/08/30 06:53:43;;;;;;;34.03;23.33;;;;;;;16.07;100.00;100514.06;5022008;28;20033;-74
2023/08/30 06:56:08;;;;;;;36.40;23.75;;;;;;;16.02;100.00;100519.03;5055185;28;20038;-72
2023/08/30 06:58:34;;;;;;;33.10;23.00;;;;;;;15.99;100.00;100519.28;5012904;28;20419;-73
2023/08/30 07:01:00;;;;;;;32.28;23.48;;;;;;;15.85;100.00;100519.69;5018596;28;20044;-73
2023/08/30 07:03:25;;;;;;;36.50;22.13;;;;;;;15.88;100.00;100517.59;5020881;28;20160;-73
2023/08/30 07:05:51;;;;;;;32.65;22.75;;;;;;;15.87;100.00;100513.19;5013824;28;20837;-73
2023/08/30 07:08:17;;;;;;;31.95;21.50;;;;;;;15.87;100.00;100515.03;5020816;28;20046;-73
2023/08/30 07:10:43;;;;;;;32.50;22.55;;;;;;;15.92;100.00;100516.31;5018049;28;20042;-73
2023/08/30 07:13:12;;;;;;;31.70;20.45;;;;;;;15.84;100.00;100515.31;5017876;28;20737;-73
2023/08/30 07:15:41;;;;;;;27.67;19.88;;;;;;;15.97;100.00;100514.06;5014622;28;20029;-73
2023/08/30 07:18:08;;;;;;;29.15;20.55;;;;;;;15.94;100.00;100514.34;5020866;28;20034;-73
2023/08/30 07:20:36;;;;;;;27.45;19.45;;;;;;;15.82;100.00;100511.94;5033254;28;20034;-73
2023/08/30 07:23:02;;;;;;;27.30;19.35;;;;;;;15.62;100.00;100516.38;5024342;28;20041;-73
2023/08/30 07:25:29;;;;;;;31.15;19.92;;;;;;;15.71;100.00;100515.56;5021364;28;20034;-73
2023/08/30 07:27:54;;;;;;;31.55;20.25;;;;;;;15.68;100.00;100519.38;5031475;28;20080;-73
2023/08/30 07:30:20;;;;;;;33.13;20.45;;;;;;;15.50;100.00;100515.63;5031833;28;20881;-73
2023/08/30 07:32:45;;;;;;;27.63;19.73;;;;;;;15.58;100.00;100521.16;5026987;28;20601;-73
2023/08/30 07:35:11;;;;;;;30.65;20.67;;;;;;;15.67;100.00;100520.38;5037284;28;20136;-73
2023/08/30 07:37:36;;;;;;;28.27;20.33;;;;;;;15.52;100.00;100519.03;5029601;28;20045;-72
2023/08/30 07:40:04;;;;;;;36.53;22.20;;;;;;;15.63;100.00;100518.06;5026770;28;20041;-72
2023/08/30 07:42:30;;;;;;;37.40;22.92;;;;;;;15.43;100.00;100518.00;5025684;28;20088;-71
2023/08/30 07:44:55;;;;;;;35.20;23.45;;;;;;;15.38;100.00;100522.09;5029200;28;20034;-72
2023/08/30 07:47:21;;;;;;;39.22;26.08;;;;;;;15.39;100.00;100524.63;5020168;28;20040;-72
2023/08/30 07:49:46;;;;;;;34.95;25.20;;;;;;;15.34;100.00;100524.19;5025215;28;20821;-72
2023/08/30 07:52:12;;;;;;;39.80;25.60;;;;;;;15.41;100.00;100527.19;5019442;28;20856;-72
2023/08/30 07:54:39;;;;;;;38.03;27.58;;;;;;;15.35;100.00;100533.09;5027250;28;20050;-72
2023/08/30 07:57:05;;;;;;;40.33;26.30;;;;;;;15.35;100.00;100533.09;5024909;28;20061;-72
2023/08/30 07:59:36;;;;;;;44.53;28.35;;;;;;;15.28;100.00;100536.34;5029257;28;20541;-71
2023/08/30 08:02:02;;;;;;;39.97;26.90;;;;;;;15.17;100.00;100535.59;5019897;28;20029;-71
2023/08/30 08:04:28;;;;;;;45.25;29.65;;;;;;;14.84;100.00;100534.84;5024313;28;20193;-72
2023/08/30 08:06:54;;;;;;;47.35;31.27;;;;;;;14.85;100.00;100541.06;5024791;28;20795;-71
2023/08/30 08:09:21;;;;;;;49.60;31.13;;;;;;;14.84;100.00;100534.00;5045847;28;20107;-71
2023/08/30 08:11:49;;;;;;;46.40;29.90;;;;;;;14.68;100.00;100545.19;5026089;28;20045;-71
2023/08/30 08:14:14;;;;;;;43.08;28.05;;;;;;;14.73;100.00;100546.50;5031663;28;20030;-71
2023/08/30 08:16:40;;;;;;;44.38;28.88;;;;;;;14.47;100.00;100551.41;5036099;28;20037;-71
2023/08/30 08:19:06;;;;;;;37.67;24.92;;;;;;;14.49;100.00;100543.22;5037240;28;20041;-71
2023/08/30 08:21:33;;;;;;;39.30;24.35;;;;;;;14.56;100.00;100539.06;5049388;28;20129;-72
2023/08/30 08:23:59;;;;;;;43.97;26.75;;;;;;;14.71;100.00;100542.25;5032758;28;20061;-71
2023/08/30 08:26:25;;;;;;;43.65;27.90;;;;;;;14.72;100.00;100543.97;5032682;28;20806;-71
2023/08/30 08:28:51;;;;;;;47.15;27.85;;;;;;;14.71;100.00;100540.44;5031815;28;20042;-71
2023/08/30 08:31:17;;;;;;;38.85;25.40;;;;;;;14.76;100.00;100540.88;5029300;28;20374;-72
2023/08/30 08:33:43;;;;;;;38.80;26.92;;;;;;;14.83;100.00;100537.66;5037040;28;20565;-71
2023/08/30 08:36:09;;;;;;;36.60;24.08;;;;;;;14.80;100.00;100530.72;5031682;28;20111;-71
2023/08/30 08:38:35;;;;;;;41.72;25.70;;;;;;;14.81;100.00;100518.13;5028375;28;20183;-71
2023/08/30 08:41:05;;;;;;;47.25;29.13;;;;;;;14.77;100.00;100518.41;5028375;28;20444;-71
2023/08/30 08:43:34;;;;;;;47.55;28.70;;;;;;;14.79;100.00;100517.44;5034910;28;20037;-72
2023/08/30 08:46:00;;;;;;;50.85;31.75;;;;;;;14.87;100.00;100510.41;5032126;28;20029;-71
2023/08/30 08:48:33;;;;;;;53.10;31.85;;;;;;;14.77;100.00;100505.00;5032718;28;20026;-71
2023/08/30 08:51:00;;;;;;;52.22;32.25;;;;;;;14.77;100.00;100504.16;5037107;28;20084;-71
2023/08/30 08:53:26;;;;;;;43.60;29.02;;;;;;;14.89;100.00;100503.06;5033584;28;20037;-71
2023/08/30 08:55:53;;;;;;;45.13;28.23;;;;;;;15.08;100.00;100491.59;5026932;28;20034;-71
2023/08/30 08:58:18;;;;;;;54.45;27.52;;;;;;;14.99;100.00;100485.16;5026144;28;20582;-72
2023/08/30 09:00:44;;;;;;;58.78;29.52;;;;;;;14.94;100.00;100483.88;5023130;28;20041;-71
2023/08/30 09:03:11;;;;;;;46.22;27.40;;;;;;;15.10;100.00;100483.38;5023782;28;20033;-71
2023/08/30 09:05:40;;;;;;;43.17;27.27;;;;;;;15.20;100.00;100473.53;5015838;28;20058;-72
2023/08/30 09:08:06;;;;;;;48.08;28.70;;;;;;;15.41;100.00;100471.63;5019935;28;20040;-72
2023/08/30 09:10:33;;;;;;;42.50;25.90;;;;;;;15.67;100.00;100463.09;5031583;28;20076;-72
2023/08/30 09:12:59;;;;;;;44.85;30.33;;;;;;;15.69;100.00;100458.41;5028258;28;20042;-71
2023/08/30 09:15:36;;;;;;;45.83;28.17;;;;;;;15.38;100.00;100468.34;5030242;28;20062;-71
2023/08/30 09:18:02;;;;;;;48.00;30.40;;;;;;;15.59;100.00;100466.41;5032350;28;20119;-71
2023/08/30 09:20:28;;;;;;;44.47;28.92;;;;;;;15.61;100.00;100467.13;5029535;28;20104;-72
2023/08/30 09:22:54;;;;;;;43.92;29.95;;;;;;;15.48;100.00;100461.16;5059974;28;20033;-71
2023/08/30 09:25:26;;;;;;;47.92;30.30;;;;;;;15.36;100.00;100464.94;5033380;28;20626;-72
2023/08/30 09:28:01;;;;;;;49.58;28.92;;;;;;;15.12;100.00;100470.69;5023304;28;20038;-72
2023/08/30 09:30:27;;;;;;;41.33;28.13;;;;;;;15.10;100.00;100468.09;5031202;28;20216;-72
2023/08/30 09:32:52;;;;;;;38.70;27.38;;;;;;;15.17;100.00;100468.44;5030785;28;20049;-72
2023/08/30 09:35:18;;;;;;;44.03;28.45;;;;;;;15.13;100.00;100464.31;5029443;28;20025;-72
2023/08/30 09:37:47;;;;;;;41.40;28.42;;;;;;;15.17;100.00;100465.75;5031786;28;20045;-72
2023/08/30 09:40:18;;;;;;;42.47;27.27;;;;;;;15.24;100.00;100464.22;5028583;28;20025;-72
2023/08/30 09:42:44;;;;;;;39.92;26.73;;;;;;;15.17;100.00;100463.91;5028063;28;20881;-72
2023/08/30 09:45:22;;;;;;;34.58;25.33;;;;;;;15.29;100.00;100459.28;5030526;28;20099;-72
2023/08/30 09:47:49;;;;;;;39.13;25.27;;;;;;;15.29;100.00;100451.22;5023749;28;20035;-72
2023/08/30 09:50:18;;;;;;;29.85;21.95;;;;;;;15.23;100.00;100451.78;5025183;28;20033;-71
2023/08/30 09:52:47;;;;;;;30.90;20.80;;;;;;;15.32;100.00;100445.59;5011943;28;20041;-71
2023/08/30 09:55:13;;;;;;;26.48;18.10;;;;;;;15.35;100.00;100439.06;5052857;28;20045;-72
2023/08/30 09:57:42;;;;;;;22.15;16.20;;;;;;;15.23;100.00;100443.72;5025424;28;22238;-72
2023/08/30 10:00:08;;;;;;;24.38;16.55;;;;;;;15.27;100.00;100445.16;5025901;28;20133;-72
2023/08/30 10:02:34;;;;;;;25.38;16.92;;;;;;;15.45;100.00;100437.25;5031211;28;20913;-71
2023/08/30 10:05:02;;;;;;;24.20;15.73;;;;;;;15.63;100.00;100430.25;5024942;28;20121;-71
2023/08/30 10:07:28;;;;;;;21.30;15.48;;;;;;;15.82;100.00;100424.03;5028940;28;20045;-72
2023/08/30 10:09:54;;;;;;;19.13;14.23;;;;;;;15.87;100.00;100423.63;5025118;28;20038;-71
2023/08/30 10:12:22;;;;;;;19.55;15.35;;;;;;;16.16;100.00;100416.34;5044726;28;20096;-72
2023/08/30 10:14:48;;;;;;;18.42;13.02;;;;;;;16.22;100.00;100413.13;5028873;28;20088;-72
2023/08/30 10:17:17;;;;;;;17.90;13.93;;;;;;;16.25;100.00;100407.41;5030388;28;20044;-71
2023/08/30 10:19:45;;;;;;;16.60;12.98;;;;;;;16.70;100.00;100400.50;5028419;28;20873;-72
2023/08/30 10:22:15;;;;;;;20.38;12.35;;;;;;;16.65;100.00;100402.78;5044558;28;20046;-72
2023/08/30 10:24:54;;;;;;;15.30;13.15;;;;;;;16.80;100.00;100399.50;5024542;28;20033;-71
2023/08/30 10:27:21;;;;;;;14.73;12.10;;;;;;;16.69;100.00;100401.50;5039445;28;20037;-71
2023/08/30 10:29:50;;;;;;;20.90;14.45;;;;;;;17.01;100.00;100398.41;5028510;28;20026;-71
2023/08/30 10:32:22;;;;;;;15.52;12.10;;;;;;;17.00;100.00;100399.41;5028799;28;20092;-71
2023/08/30 10:34:49;;;;;;;15.98;12.88;;;;;;;16.64;100.00;100404.63;5027226;28;20057;-71
2023/08/30 10:37:16;;;;;;;17.30;13.70;;;;;;;16.64;100.00;100401.94;5024697;28;20053;-72
2023/08/30 10:39:43;;;;;;;18.60;12.98;;;;;;;16.38;100.00;100408.97;5025041;28;20043;-70
2023/08/30 10:42:09;;;;;;;17.88;13.43;;;;;;;16.57;100.00;100400.84;5029111;28;20026;-71
2023/08/30 10:44:47;;;;;;;17.00;13.23;;;;;;;16.67;100.00;100403.50;5030930;28;20041;-72
2023/08/30 10:47:18;;;;;;;18.27;13.15;;;;;;;16.60;100.00;100403.22;5028037;28;20033;-71
2023/08/30 10:49:46;;;;;;;18.93;12.77;;;;;;;16.45;100.00;100410.91;5032763;28;20107;-71
2023/08/30 10:52:12;;;;;;;17.35;13.35;;;;;;;17.15;100.00;100399.75;5033043;28;21059;-72
2023/08/30 10:54:40;;;;;;;18.33;13.60;;;;;;;17.42;100.00;100394.34;5032185;28;20041;-72
2023/08/30 10:57:13;;;;;;;18.33;12.32;;;;;;;17.67;100.00;100390.06;5033195;28;20045;-71
2023/08/30 10:59:40;;;;;;;17.40;13.70;;;;;;;17.92;100.00;100376.78;5021686;28;20116;-72
2023/08/30 11:02:06;;;;;;;15.77;12.65;;;;;;;18.06;100.00;100374.38;5035356;28;20037;-71